This is the latest recevied weather packets stored in our database for station/object BMCB-21. If no packets are shown the sender has not sent any weather packets the latest 10 day(s).
| Time | Temp. | Humidity | Pressure | Rain* | Wind** | Luminosity | Snow |
|---|---|---|---|---|---|---|---|
| 1777935050 | 11.67° C | 98% | 1010.7 hPa | 0 mm | - | 0 W/m² | - |
| 1777926624 | 12.78° C | 94% | 1011.5 hPa | 0 mm | - | 0 W/m² | - |
| 1777915222 | 15° C | 86% | 1011 hPa | 0.25 mm | - | 48 W/m² | - |
| 1777914622 | 15° C | 88% | 1010.9 hPa | 0.25 mm | - | 54 W/m² | - |
| 1777911622 | 16.11° C | 87% | 1011.1 hPa | 0 mm | - | 37 W/m² | - |
| 1777903222 | 16.67° C | 83% | 1011.7 hPa | 0 mm | - | 190 W/m² | - |
| 1777894842 | 16.67° C | 81% | 1012.4 hPa | 0 mm | - | 204 W/m² | - |
| 1777891843 | 16.11° C | 82% | 1012.8 hPa | 0 mm | - | 102 W/m² | - |
| 1777888847 | 15.56° C | 85% | 1012.9 hPa | 0 mm | - | 105 W/m² | - |
| 1777887045 | 15.56° C | 86% | 1012.8 hPa | 0 mm | - | 167 W/m² | - |
| 1777886422 | 15° C | 87% | 1012.9 hPa | 0 mm | - | 156 W/m² | - |
| 1777881647 | 14.44° C | 89% | 1012.5 hPa | 0 mm | - | 146 W/m² | - |
| 1777869043 | 9.44° C | 99% | 1011.5 hPa | 0 mm | - | 0 W/m² | - |
| 1777866045 | 7.78° C | 98% | 1011.5 hPa | 0.25 mm | - | 0 W/m² | - |
| 1777864243 | 8.33° C | 97% | 1011.4 hPa | 0.25 mm | - | 0 W/m² | - |
| 1777863048 | 8.89° C | 97% | 1011.3 hPa | 0 mm | - | 0 W/m² | - |
| 1777850450 | 12.22° C | 96% | 1011.2 hPa | 0 mm | - | 0 W/m² | - |
| 1777840820 | 13.89° C | 92% | 1011.2 hPa | 0.25 mm | - | 0 W/m² | - |
| 1777828821 | 15° C | 88% | 1010.5 hPa | 0 mm | - | 3 W/m² | - |
| 1777826421 | 15° C | 87% | 1010.3 hPa | 0 mm | - | 34 W/m² | - |
| 1777825816 | 15.56° C | 85% | 1010.3 hPa | 0 mm | - | 20 W/m² | - |
| 1777819220 | 16.11° C | 86% | 1010.6 hPa | 0 mm | - | 109 W/m² | - |
| 1777817420 | 15.56° C | 89% | 1010.7 hPa | 0 mm | - | 231 W/m² | - |
| 1777816221 | 15.56° C | 89% | 1010.7 hPa | 0 mm | - | 95 W/m² | - |
| 1777813244 | 15° C | 92% | 1011.1 hPa | 0.76 mm | - | 180 W/m² | - |
* Rain latest hour (hover to see other rain measurements)
** Current wind speed in m/s (hover to see current wind gust speed)